Warner, Virginia
Current Conditions -  °F | °C
As of 9:35 PM on Friday 24 Oct 2014 (Local Time) from KW75 Reporting Station
Clear Clear  
Wind Chill: 51°   Ceiling: Unl
Heat Index: 51°   Visibility: 10mi
Dew Point: 43°   Wind: 6mph
Humidity: 73%   Direction: 280°W
Pressure: 29.93"   Gusts: NA
Location:  37.6507°N, 76.6196°W
Report Text: KW75 250135Z AUTO 28005KT 10SM CLR 11/06 A2993 RMK AO1 T01060060
Loading
Personal Weather Stations






























Interactive Weather Map
Tropical Storm Tracking
New forecast layout! Learn more

10-Day Weather Forecast

Advertisements
Track Severe Weather on mobile